Surigao, Philippines
Current Conditions -  °F | °C
As of 1:00 AM on Saturday 29 Nov 2014 (Local Time) from RPVM Reporting Station
Overcast Overcast  
Wind Chill: 81°   Ceiling: 9000
Heat Index: 86°   Visibility: 6mi
Dew Point: 75°   Wind: 9mph
Humidity: 84%   Direction: 340°NNW
Pressure: 29.83"   Gusts: NA
Location:  9.8°N, 125.47°E
Report Text: RPVM 281700Z 34008KT 9999 FEW020 OVC090 27/24 Q1010 RMK A2983
Loading
Personal Weather Stations






























Interactive Weather Map New forecast layout! Learn more

10-Day Weather Forecast

Advertisements
Track Severe Weather on mobile